createdAt,value
2019-05-01T00:02:36.894Z,29.35
2019-05-01T00:05:27.897Z,28.70
2019-05-01T00:08:00.055Z,29.26
2019-05-01T00:10:32.669Z,29.11
2019-05-01T00:13:05.227Z,29.63
2019-05-01T00:15:38.929Z,29.63
2019-05-01T00:18:10.947Z,29.45
2019-05-01T00:20:42.734Z,29.14
2019-05-01T00:23:14.653Z,29.16
2019-05-01T00:25:46.458Z,29.16
2019-05-01T00:28:19.316Z,29.50
2019-05-01T00:30:51.158Z,29.50
2019-05-01T00:33:22.895Z,29.17
2019-05-01T00:35:54.662Z,29.52
2019-05-01T00:38:26.302Z,29.52
2019-05-01T00:40:58.411Z,28.73
2019-05-01T00:43:30.183Z,28.73
2019-05-01T00:46:02.599Z,27.91
2019-05-01T00:48:34.751Z,27.63
2019-05-01T00:51:06.631Z,27.63
2019-05-01T00:53:39.725Z,27.44
2019-05-01T00:56:21.992Z,26.90
2019-05-01T00:59:02.829Z,26.93
2019-05-01T01:02:05.866Z,26.09
2019-05-01T01:04:37.840Z,26.09
2019-05-01T01:07:09.934Z,25.61
2019-05-01T01:09:41.563Z,25.57
2019-05-01T01:12:13.565Z,25.31
2019-05-01T01:14:45.152Z,25.31
2019-05-01T01:17:17.209Z,24.56
2019-05-01T01:19:49.081Z,24.56
2019-05-01T01:22:21.244Z,24.02
2019-05-01T01:24:53.683Z,23.69
2019-05-01T01:27:26.731Z,23.69
2019-05-01T01:29:58.483Z,24.14
2019-05-01T01:32:30.648Z,24.30
2019-05-01T01:35:02.494Z,24.30
2019-05-01T01:37:35.401Z,23.31
2019-05-01T01:40:08.288Z,23.31
2019-05-01T01:42:41.533Z,23.77
2019-05-01T01:45:32.327Z,23.77
2019-05-01T01:48:18.301Z,23.07
2019-05-01T01:50:50.062Z,23.83
2019-05-01T01:53:24.347Z,23.83
2019-05-01T01:55:56.889Z,23.56
2019-05-01T01:58:29.118Z,24.21
2019-05-01T02:01:22.029Z,24.21
2019-05-01T02:03:58.724Z,24.68
2019-05-01T02:06:30.486Z,24.16
2019-05-01T02:09:02.353Z,23.94
2019-05-01T02:11:35.626Z,23.79
2019-05-01T02:14:07.877Z,23.79
2019-05-01T02:16:39.703Z,23.15
2019-05-01T02:19:11.635Z,23.20
2019-05-01T02:21:43.297Z,22.46
2019-05-01T02:24:15.048Z,22.46
2019-05-01T02:26:49.650Z,21.59
2019-05-01T02:29:30.651Z,21.59
2019-05-01T02:32:02.996Z,20.46
2019-05-01T02:34:36.958Z,20.63
2019-05-01T02:37:11.623Z,20.63
2019-05-01T02:39:46.083Z,20.69
2019-05-01T02:42:21.008Z,20.17
2019-05-01T02:44:56.519Z,19.94
2019-05-01T02:47:33.562Z,19.94
2019-05-01T02:50:10.690Z,20.17
2019-05-01T02:52:44.885Z,20.17
2019-05-01T02:55:29.855Z,19.79
2019-05-01T02:58:02.724Z,19.91
2019-05-01T03:00:35.436Z,19.62
2019-05-01T03:03:08.026Z,19.75
2019-05-01T03:05:42.587Z,19.38
2019-05-01T03:08:14.744Z,19.59
2019-05-01T03:10:47.438Z,19.59
2019-05-01T03:13:19.720Z,19.93
2019-05-01T03:15:52.469Z,19.25
2019-05-01T03:18:30.437Z,19.10
2019-05-01T03:21:24.210Z,19.10
2019-05-01T03:24:04.641Z,18.69
2019-05-01T03:26:37.347Z,18.56
2019-05-01T03:29:10.173Z,18.65
2019-05-01T03:31:42.790Z,18.23
2019-05-01T03:34:14.873Z,18.23
2019-05-01T03:36:46.969Z,18.50
2019-05-01T03:39:21.137Z,17.88
2019-05-01T03:41:54.027Z,17.88
2019-05-01T03:44:26.317Z,18.11
2019-05-01T03:46:58.904Z,18.11
2019-05-01T03:49:31.025Z,18.04
2019-05-01T03:52:03.590Z,17.63
2019-05-01T03:54:35.631Z,17.63
2019-05-01T03:57:12.395Z,18.16
2019-05-01T03:59:44.275Z,18.04
2019-05-01T04:02:36.454Z,17.33
2019-05-01T04:05:08.597Z,17.41
2019-05-01T04:07:41.880Z,16.77
2019-05-01T04:10:14.464Z,16.77
2019-05-01T04:12:47.099Z,17.11
2019-05-01T04:15:19.478Z,16.93
2019-05-01T04:17:55.398Z,16.93
2019-05-01T04:20:27.795Z,16.34
2019-05-01T04:23:00.847Z,16.34
2019-05-01T04:25:36.662Z,16.93
2019-05-01T04:28:26.365Z,16.66
2019-05-01T04:31:14.731Z,16.39
2019-05-01T04:33:48.437Z,16.19
2019-05-01T04:36:27.255Z,16.10
2019-05-01T04:38:59.775Z,16.34
2019-05-01T04:41:32.148Z,16.47
2019-05-01T04:44:04.223Z,15.95
2019-05-01T04:46:37.335Z,16.65
2019-05-01T04:49:09.669Z,15.18
2019-05-01T04:51:42.209Z,15.18
2019-05-01T04:54:14.717Z,15.63
2019-05-01T04:56:47.280Z,15.65
2019-05-01T04:59:22.692Z,15.65
2019-05-01T05:01:58.274Z,16.45
2019-05-01T05:04:30.162Z,16.45
2019-05-01T05:07:03.026Z,15.86
2019-05-01T05:09:45.616Z,15.57
2019-05-01T05:12:30.923Z,15.11
2019-05-01T05:15:20.706Z,15.11
2019-05-01T05:17:52.583Z,15.70
2019-05-01T05:20:25.097Z,15.91
2019-05-01T05:22:57.262Z,15.41
2019-05-01T05:25:29.409Z,15.79
2019-05-01T05:28:02.039Z,15.79
2019-05-01T05:30:34.671Z,16.23
2019-05-01T05:33:18.225Z,16.23
2019-05-01T05:35:44.019Z,16.09
2019-05-01T05:38:24.795Z,15.91
2019-05-01T05:41:00.371Z,15.91
2019-05-01T05:43:32.574Z,16.22
2019-05-01T05:46:05.073Z,16.27
2019-05-01T05:48:36.897Z,15.90
2019-05-01T05:51:18.940Z,15.44
2019-05-01T05:53:56.587Z,15.44
2019-05-01T05:56:34.135Z,15.26
2019-05-01T05:59:12.763Z,15.59
2019-05-01T06:01:55.794Z,15.72
2019-05-01T06:04:58.764Z,15.72
2019-05-01T06:07:46.603Z,15.68
2019-05-01T06:10:29.608Z,15.53
2019-05-01T06:13:21.838Z,15.53
2019-05-01T06:16:05.203Z,15.03
2019-05-01T06:18:54.154Z,15.32
2019-05-01T06:21:42.576Z,15.35
2019-05-01T06:24:21.191Z,15.62
2019-05-01T06:26:53.200Z,15.62
2019-05-01T06:29:25.146Z,15.27
2019-05-01T06:31:58.851Z,15.27
2019-05-01T06:34:31.366Z,15.47
2019-05-01T06:37:03.283Z,14.88
2019-05-01T06:39:35.764Z,15.24
2019-05-01T06:42:09.748Z,15.61
2019-05-01T06:44:54.196Z,15.61
2019-05-01T06:47:44.296Z,14.70
2019-05-01T06:50:37.088Z,14.67
2019-05-01T06:53:08.093Z,14.73
2019-05-01T06:55:39.992Z,15.16
2019-05-01T06:58:14.745Z,15.16
2019-05-01T07:00:45.456Z,14.94
2019-05-01T07:03:17.841Z,14.94
2019-05-01T07:05:54.380Z,15.00
2019-05-01T07:08:24.805Z,15.01
2019-05-01T07:10:57.449Z,14.33
2019-05-01T07:13:29.114Z,14.50
2019-05-01T07:16:03.259Z,14.50
2019-05-01T07:18:36.145Z,14.35
2019-05-01T07:21:08.048Z,14.35
2019-05-01T07:23:39.885Z,14.23
2019-05-01T07:26:13.733Z,14.56
2019-05-01T07:28:47.242Z,14.03
2019-05-01T07:31:19.821Z,14.03
2019-05-01T07:33:52.477Z,14.54
2019-05-01T07:36:24.745Z,14.37
2019-05-01T07:38:56.594Z,14.12
2019-05-01T07:41:29.279Z,14.12
2019-05-01T07:44:16.281Z,14.76
2019-05-01T07:47:06.913Z,14.39
2019-05-01T07:50:05.594Z,14.39
2019-05-01T07:52:37.787Z,14.09
2019-05-01T07:55:13.139Z,14.24
2019-05-01T07:57:46.319Z,14.24
2019-05-01T08:00:29.660Z,14.53
2019-05-01T08:03:02.637Z,14.28
2019-05-01T08:05:35.620Z,13.88
2019-05-01T08:08:08.178Z,13.88
2019-05-01T08:10:40.980Z,14.85
2019-05-01T08:13:12.747Z,14.85
2019-05-01T08:15:44.584Z,14.51
2019-05-01T08:18:24.107Z,13.71
2019-05-01T08:21:08.381Z,13.71
2019-05-01T08:23:42.640Z,14.35
2019-05-01T08:26:14.226Z,14.35
2019-05-01T08:29:06.835Z,13.64
2019-05-01T08:31:48.784Z,14.04
2019-05-01T08:34:25.408Z,13.01
2019-05-01T08:36:55.853Z,13.10
2019-05-01T08:39:28.378Z,13.31
2019-05-01T08:42:03.070Z,13.31
2019-05-01T08:44:36.690Z,13.67
2019-05-01T08:47:27.763Z,13.67
2019-05-01T08:50:05.453Z,13.24
2019-05-01T08:52:37.422Z,13.06
2019-05-01T08:55:10.837Z,13.06
2019-05-01T08:57:42.953Z,13.56
2019-05-01T09:00:15.190Z,12.38
2019-05-01T09:02:47.120Z,12.38
2019-05-01T09:05:28.558Z,12.81
2019-05-01T09:07:55.957Z,12.18
2019-05-01T09:10:29.017Z,12.49
2019-05-01T09:13:00.817Z,12.79
2019-05-01T09:15:32.902Z,12.74
2019-05-01T09:18:04.551Z,12.45
2019-05-01T09:20:37.334Z,12.45
2019-05-01T09:23:13.901Z,12.83
2019-05-01T09:25:49.546Z,12.59
2019-05-01T09:28:27.680Z,13.03
2019-05-01T09:31:03.375Z,12.58
2019-05-01T09:33:37.159Z,12.58
2019-05-01T09:36:09.092Z,12.88
2019-05-01T09:38:41.580Z,12.91
2019-05-01T09:41:14.578Z,12.11
2019-05-01T09:43:46.804Z,12.11
2019-05-01T09:46:18.813Z,11.57
2019-05-01T09:48:51.500Z,12.17
2019-05-01T09:51:47.525Z,11.85
2019-05-01T09:54:38.187Z,12.39
2019-05-01T09:57:10.161Z,12.49
2019-05-01T09:59:42.403Z,12.80
2019-05-01T10:02:15.037Z,12.19
2019-05-01T10:04:46.707Z,12.21
2019-05-01T10:07:19.371Z,12.21
2019-05-01T10:09:52.219Z,12.12
2019-05-01T10:12:25.778Z,12.12
2019-05-01T10:14:57.664Z,12.18
2019-05-01T10:17:29.552Z,12.18
2019-05-01T10:20:01.359Z,12.15
2019-05-01T10:22:37.296Z,12.64
2019-05-01T10:25:08.467Z,12.64
2019-05-01T10:27:44.332Z,12.98
2019-05-01T10:30:24.283Z,12.11
2019-05-01T10:33:00.611Z,12.45
2019-05-01T10:35:42.988Z,12.45
2019-05-01T10:38:14.015Z,12.48
2019-05-01T10:40:46.521Z,12.42
2019-05-01T10:43:18.969Z,11.62
2019-05-01T10:45:50.900Z,11.62
2019-05-01T10:48:22.474Z,12.05
2019-05-01T10:50:54.776Z,12.05
2019-05-01T10:53:26.545Z,12.12
2019-05-01T10:55:59.471Z,12.12
2019-05-01T10:58:31.561Z,12.42
2019-05-01T11:01:16.102Z,11.96
2019-05-01T11:03:47.849Z,11.96
2019-05-01T11:06:19.767Z,12.06
2019-05-01T11:08:51.976Z,12.06
2019-05-01T11:11:23.902Z,12.05
2019-05-01T11:13:56.036Z,12.05
2019-05-01T11:16:28.048Z,11.86
2019-05-01T11:18:59.719Z,11.86
2019-05-01T11:21:31.559Z,11.87
2019-05-01T11:24:03.092Z,12.05
2019-05-01T11:26:35.319Z,12.16
2019-05-01T11:29:07.366Z,12.08
2019-05-01T11:31:49.069Z,12.49
2019-05-01T11:34:38.647Z,12.60
2019-05-01T11:37:28.825Z,13.29
2019-05-01T11:40:31.984Z,12.71
2019-05-01T11:43:03.681Z,11.80
2019-05-01T11:45:35.989Z,11.84
2019-05-01T11:48:08.223Z,11.84
2019-05-01T11:50:40.087Z,12.56
2019-05-01T11:53:11.935Z,11.70
2019-05-01T11:55:43.764Z,12.45
2019-05-01T11:58:15.809Z,12.45
2019-05-01T12:00:48.781Z,12.30
2019-05-01T12:03:23.837Z,13.05
2019-05-01T12:05:55.489Z,12.47
2019-05-01T12:08:27.365Z,12.47
2019-05-01T12:10:59.906Z,13.06
2019-05-01T12:13:43.249Z,12.84
2019-05-01T12:16:16.510Z,12.62
2019-05-01T12:18:48.292Z,12.62
2019-05-01T12:21:20.068Z,13.05
2019-05-01T12:23:51.868Z,12.82
2019-05-01T12:26:23.891Z,12.67
2019-05-01T12:28:55.528Z,12.61
2019-05-01T12:31:27.287Z,13.23
2019-05-01T12:33:59.007Z,12.71
2019-05-01T12:36:36.593Z,13.10
2019-05-01T12:39:06.565Z,13.10
2019-05-01T12:41:46.048Z,13.34
2019-05-01T12:44:18.091Z,13.24
2019-05-01T12:46:59.288Z,13.28
2019-05-01T12:49:31.398Z,13.37
2019-05-01T12:52:10.715Z,13.17
2019-05-01T12:55:03.204Z,13.79
2019-05-01T12:57:35.014Z,13.79
2019-05-01T13:00:09.274Z,13.87
2019-05-01T13:02:41.317Z,15.21
2019-05-01T13:05:13.218Z,15.36
2019-05-01T13:07:45.103Z,15.36
2019-05-01T13:10:17.053Z,15.55
2019-05-01T13:12:48.910Z,15.75
2019-05-01T13:15:20.698Z,17.02
2019-05-01T13:17:53.150Z,17.02
2019-05-01T13:20:24.526Z,17.69
2019-05-01T13:22:56.372Z,17.69
2019-05-01T13:25:27.817Z,17.75
2019-05-01T13:28:24.145Z,18.35
2019-05-01T13:31:14.680Z,18.35
2019-05-01T13:33:46.943Z,18.75
2019-05-01T13:36:18.703Z,19.18
2019-05-01T13:38:50.613Z,19.18
2019-05-01T13:41:22.196Z,19.47
2019-05-01T13:43:53.879Z,19.46
2019-05-01T13:46:25.604Z,20.12
2019-05-01T13:48:57.536Z,20.44
2019-05-01T13:51:29.204Z,20.44
2019-05-01T13:54:01.711Z,20.36
2019-05-01T13:56:33.487Z,20.46
2019-05-01T13:59:07.456Z,20.53
2019-05-01T14:01:39.462Z,21.09
2019-05-01T14:04:11.872Z,21.07
2019-05-01T14:06:43.796Z,21.07
2019-05-01T14:09:17.553Z,20.96
2019-05-01T14:11:49.863Z,20.96
2019-05-01T14:14:21.631Z,20.66
2019-05-01T14:16:53.440Z,21.32
2019-05-01T14:19:25.153Z,21.09
2019-05-01T14:22:21.322Z,20.54
2019-05-01T14:24:56.794Z,20.79
2019-05-01T14:27:28.558Z,20.83
2019-05-01T14:30:00.274Z,21.55
2019-05-01T14:32:32.124Z,20.68
2019-05-01T14:35:03.715Z,20.68
2019-05-01T14:37:54.025Z,20.08
2019-05-01T14:40:27.471Z,20.08
2019-05-01T14:42:59.379Z,20.00
2019-05-01T14:45:31.390Z,19.68
2019-05-01T14:48:03.495Z,19.79
2019-05-01T14:50:35.851Z,19.89
2019-05-01T14:53:08.016Z,19.58
2019-05-01T14:55:40.507Z,19.89
2019-05-01T14:58:13.510Z,20.00
2019-05-01T15:00:45.291Z,19.50
2019-05-01T15:03:17.487Z,18.79
2019-05-01T15:05:49.354Z,18.79
2019-05-01T15:08:21.265Z,19.03
2019-05-01T15:10:53.610Z,19.03
2019-05-01T15:13:34.998Z,19.97
2019-05-01T15:16:14.085Z,19.97
2019-05-01T15:19:07.973Z,20.60
2019-05-01T15:21:40.123Z,20.85
2019-05-01T15:24:11.898Z,20.69
2019-05-01T15:26:43.830Z,20.66
2019-05-01T15:29:15.679Z,21.63
2019-05-01T15:31:47.419Z,22.20
2019-05-01T15:34:18.765Z,22.47
2019-05-01T15:36:50.847Z,22.81
2019-05-01T15:39:37.193Z,22.81
2019-05-01T15:42:26.686Z,22.40
2019-05-01T15:44:58.610Z,22.22
2019-05-01T15:47:30.423Z,22.47
2019-05-01T15:50:02.299Z,22.46
2019-05-01T15:52:33.996Z,22.93
2019-05-01T15:55:06.372Z,22.93
2019-05-01T15:57:38.303Z,22.79
2019-05-01T16:00:13.276Z,22.37
2019-05-01T16:02:45.795Z,22.01
2019-05-01T16:05:17.756Z,21.34
2019-05-01T16:07:49.473Z,20.81
2019-05-01T16:10:26.649Z,21.19
2019-05-01T16:13:01.012Z,21.19
2019-05-01T16:15:36.356Z,21.27
2019-05-01T16:18:08.293Z,21.07
2019-05-01T16:20:39.743Z,21.55
2019-05-01T16:23:11.522Z,21.55
2019-05-01T16:25:43.227Z,21.52
2019-05-01T16:28:15.092Z,21.52
2019-05-01T16:30:47.233Z,21.55
2019-05-01T16:33:19.094Z,21.55
2019-05-01T16:35:51.498Z,21.82
2019-05-01T16:38:37.260Z,22.05
2019-05-01T16:41:09.727Z,23.49
2019-05-01T16:43:42.057Z,23.49
2019-05-01T16:46:13.706Z,23.47
2019-05-01T16:48:45.886Z,23.49
2019-05-01T16:51:17.515Z,23.12
2019-05-01T16:53:49.227Z,22.66
2019-05-01T16:56:20.965Z,21.94
2019-05-01T16:58:52.908Z,22.13
2019-05-01T17:01:49.795Z,20.13
2019-05-01T17:04:30.104Z,20.13
2019-05-01T17:07:17.053Z,19.63
2019-05-01T17:10:14.240Z,20.30
2019-05-01T17:12:49.648Z,20.30
2019-05-01T17:15:29.251Z,20.17
2019-05-01T17:18:01.265Z,20.34
2019-05-01T17:20:33.258Z,20.23
2019-05-01T17:23:06.491Z,20.55
2019-05-01T17:25:38.210Z,20.28
2019-05-01T17:28:10.291Z,20.28
2019-05-01T17:30:44.700Z,20.38
2019-05-01T17:33:20.655Z,20.51
2019-05-01T17:35:50.198Z,20.51
2019-05-01T17:38:22.228Z,20.48
2019-05-01T17:40:54.108Z,21.45
2019-05-01T17:43:26.322Z,21.37
2019-05-01T17:45:57.870Z,21.62
2019-05-01T17:48:33.750Z,21.62
2019-05-01T17:51:03.537Z,21.61
2019-05-01T17:53:35.158Z,21.86
2019-05-01T17:56:10.110Z,22.21
2019-05-01T17:58:40.271Z,22.45
2019-05-01T18:01:33.410Z,22.62
2019-05-01T18:04:19.438Z,22.62
2019-05-01T18:06:51.742Z,23.44
2019-05-01T18:09:23.526Z,23.44
2019-05-01T18:11:55.267Z,23.92
2019-05-01T18:14:26.956Z,23.83
2019-05-01T18:16:59.404Z,23.88
2019-05-01T18:19:31.237Z,23.88
2019-05-01T18:22:16.078Z,24.28
2019-05-01T18:25:06.827Z,24.04
2019-05-01T18:28:16.407Z,23.96
2019-05-01T18:30:51.683Z,24.26
2019-05-01T18:33:25.857Z,24.26
2019-05-01T18:35:55.648Z,24.84
2019-05-01T18:38:43.016Z,24.84
2019-05-01T18:41:27.400Z,24.86
2019-05-01T18:43:58.946Z,26.12
2019-05-01T18:46:30.961Z,26.12
2019-05-01T18:49:02.782Z,26.40
2019-05-01T18:51:36.231Z,26.52
2019-05-01T18:54:08.020Z,27.57
2019-05-01T18:56:39.765Z,28.15
2019-05-01T18:59:11.596Z,28.15
2019-05-01T19:01:48.408Z,27.67
2019-05-01T19:04:18.383Z,28.00
2019-05-01T19:06:51.382Z,28.46
2019-05-01T19:09:29.696Z,28.20
2019-05-01T19:11:56.480Z,29.08
2019-05-01T19:14:30.641Z,29.08
2019-05-01T19:17:02.060Z,27.70
2019-05-01T19:19:33.821Z,28.95
2019-05-01T19:22:06.393Z,28.95
2019-05-01T19:24:39.994Z,29.03
2019-05-01T19:27:14.171Z,29.09
2019-05-01T19:29:47.257Z,28.00
2019-05-01T19:32:19.995Z,29.34
2019-05-01T19:34:53.747Z,29.41
2019-05-01T19:37:29.265Z,28.83
2019-05-01T19:39:59.302Z,28.67
2019-05-01T19:42:31.031Z,29.07
2019-05-01T19:45:02.609Z,28.50
2019-05-01T19:47:35.379Z,29.09
2019-05-01T19:50:10.307Z,29.09
2019-05-01T19:52:42.390Z,29.55
2019-05-01T19:55:14.167Z,28.88
2019-05-01T19:57:45.806Z,29.24
2019-05-01T20:00:21.761Z,29.24
2019-05-01T20:02:54.310Z,28.89
2019-05-01T20:05:28.857Z,29.19
2019-05-01T20:08:00.884Z,30.32
2019-05-01T20:10:32.586Z,29.07
2019-05-01T20:13:07.130Z,29.85
2019-05-01T20:15:37.441Z,30.24
2019-05-01T20:18:09.148Z,30.24
2019-05-01T20:20:41.076Z,30.64
2019-05-01T20:23:12.716Z,30.51
2019-05-01T20:25:44.515Z,30.21
2019-05-01T20:28:16.000Z,29.70
2019-05-01T20:30:49.527Z,29.53
2019-05-01T20:33:21.563Z,29.52
2019-05-01T20:36:00.574Z,29.52
2019-05-01T20:38:30.385Z,30.10
2019-05-01T20:41:01.899Z,29.33
2019-05-01T20:43:38.178Z,29.33
2019-05-01T20:46:07.664Z,30.20
2019-05-01T20:48:39.901Z,30.03
2019-05-01T20:51:11.542Z,30.70
2019-05-01T20:53:43.250Z,30.70
2019-05-01T20:56:38.469Z,30.79
2019-05-01T20:59:10.342Z,31.05
2019-05-01T21:01:42.822Z,31.16
2019-05-01T21:04:36.074Z,31.68
2019-05-01T21:07:19.916Z,31.53
2019-05-01T21:09:57.303Z,31.53
2019-05-01T21:12:23.925Z,31.72
2019-05-01T21:14:55.376Z,30.95
2019-05-01T21:17:27.257Z,31.19
2019-05-01T21:19:58.733Z,31.40
2019-05-01T21:22:30.360Z,32.77
2019-05-01T21:25:01.886Z,32.77
2019-05-01T21:27:33.679Z,31.77
2019-05-01T21:30:06.047Z,32.45
2019-05-01T21:32:37.516Z,31.57
2019-05-01T21:35:09.473Z,32.01
2019-05-01T21:37:41.137Z,32.01
2019-05-01T21:40:13.718Z,31.45
2019-05-01T21:42:47.341Z,32.41
2019-05-01T21:45:18.866Z,32.41
2019-05-01T21:47:52.756Z,32.10
2019-05-01T21:50:26.479Z,32.89
2019-05-01T21:53:03.247Z,32.60
2019-05-01T21:55:32.435Z,32.60
2019-05-01T21:58:05.181Z,31.98
2019-05-01T22:00:40.729Z,32.28
2019-05-01T22:03:16.592Z,33.39
2019-05-01T22:05:50.374Z,34.09
2019-05-01T22:08:22.442Z,34.09
2019-05-01T22:10:57.570Z,32.47
2019-05-01T22:13:29.851Z,32.47
2019-05-01T22:16:08.709Z,32.00
2019-05-01T22:18:47.138Z,32.15
2019-05-01T22:21:43.556Z,32.29
2019-05-01T22:24:41.512Z,32.98
2019-05-01T22:27:22.967Z,33.49
2019-05-01T22:30:05.879Z,33.53
2019-05-01T22:32:41.298Z,34.25
2019-05-01T22:35:17.120Z,34.25
2019-05-01T22:37:48.626Z,34.30
2019-05-01T22:40:25.237Z,34.69
2019-05-01T22:42:57.479Z,35.04
2019-05-01T22:45:29.578Z,35.04
2019-05-01T22:48:01.443Z,35.04
2019-05-01T22:50:32.868Z,34.90
2019-05-01T22:53:07.975Z,33.51
2019-05-01T22:55:37.744Z,34.01
2019-05-01T22:58:09.143Z,34.11
2019-05-01T23:00:46.302Z,34.11
2019-05-01T23:03:25.341Z,33.11
2019-05-01T23:05:57.069Z,33.28
2019-05-01T23:08:28.491Z,33.03
2019-05-01T23:11:00.893Z,32.50
2019-05-01T23:13:33.128Z,32.77
2019-05-01T23:16:05.742Z,33.35
2019-05-01T23:18:37.302Z,33.35
2019-05-01T23:21:09.760Z,33.15
2019-05-01T23:23:42.340Z,34.25
2019-05-01T23:26:16.543Z,33.01
2019-05-01T23:28:47.509Z,33.20
2019-05-01T23:31:19.676Z,33.25
2019-05-01T23:33:51.899Z,33.25
2019-05-01T23:36:24.031Z,33.21
2019-05-01T23:38:55.669Z,33.54
2019-05-01T23:41:44.616Z,33.18
2019-05-01T23:44:03.404Z,33.18
2019-05-01T23:46:34.469Z,33.59
2019-05-01T23:49:05.926Z,33.77
2019-05-01T23:51:37.769Z,33.46
2019-05-01T23:54:09.241Z,33.53
2019-05-01T23:56:40.937Z,34.42
2019-05-01T23:59:12.702Z,34.42
